Time;durP1;ratioP1;P1;durP2;ratioP2;P2;SDS_P1;SDS_P2;PMS_P1;PMS_P2;Temp;Humidity;BMP_temperature;BMP_pressure;BME280_temperature;BME280_humidity;BME280_pressure;Samples;Min_cycle;Max_cycle;Signal;HPM_P1;HPM_P2
2022/04/20 00:01:28;;;;;;;6.20;4.30;;;;;;;20.24;43.59;96714.38;10345417;28;20548;-79
2022/04/20 00:06:47;;;;;;;5.20;4.20;;;;;;;20.24;43.60;96703.56;10355183;28;20125;-80
2022/04/20 00:12:07;;;;;;;5.43;4.22;;;;;;;20.22;43.55;96715.84;10337072;28;20042;-79
2022/04/20 00:17:27;;;;;;;5.20;4.22;;;;;;;20.22;43.43;96710.44;10369873;28;20045;-80
2022/04/20 00:22:47;;;;;;;5.13;4.00;;;;;;;20.20;43.38;96723.50;10343784;28;20101;-80
2022/04/20 00:28:06;;;;;;;4.65;4.00;;;;;;;20.18;43.38;96713.00;10354504;28;20100;-80
2022/04/20 00:33:26;;;;;;;5.50;4.03;;;;;;;20.16;43.39;96728.78;10370458;28;20046;-80
2022/04/20 00:38:45;;;;;;;5.13;4.07;;;;;;;20.15;43.35;96721.78;10352185;28;20046;-80
2022/04/20 00:44:05;;;;;;;4.68;3.85;;;;;;;20.12;43.23;96708.91;10359590;28;20046;-80
2022/04/20 00:49:26;;;;;;;5.28;3.63;;;;;;;20.12;43.31;96706.22;10355287;28;20463;-80
2022/04/20 00:54:46;;;;;;;5.57;4.00;;;;;;;20.10;43.19;96703.06;10326796;28;20042;-79
2022/04/20 01:00:10;;;;;;;4.32;3.75;;;;;;;20.08;43.06;96708.78;10351201;28;20050;-79
2022/04/20 01:05:37;;;;;;;4.32;3.67;;;;;;;20.08;43.12;96700.66;10340988;28;20044;-79
2022/04/20 01:11:15;;;;;;;4.37;3.83;;;;;;;20.07;43.21;96703.69;10360232;28;20396;-80
2022/04/20 01:16:50;;;;;;;4.85;3.78;;;;;;;20.05;43.22;96698.63;10350026;28;20316;-79
2022/04/20 01:22:28;;;;;;;5.30;3.63;;;;;;;20.03;43.25;96700.06;10362546;28;20037;-80
2022/04/20 01:28:15;;;;;;;3.90;3.50;;;;;;;20.02;43.06;96695.81;10382141;28;20041;-80
2022/04/20 01:33:55;;;;;;;4.05;3.40;;;;;;;20.00;43.13;96692.63;10356470;28;20046;-79
2022/04/20 01:39:15;;;;;;;3.95;3.53;;;;;;;20.00;43.05;96692.63;10342959;28;20510;-80
2022/04/20 01:44:37;;;;;;;4.60;3.20;;;;;;;19.98;43.08;96690.25;10369087;28;20041;-80
2022/04/20 01:50:06;;;;;;;6.20;3.63;;;;;;;19.95;43.09;96686.31;10372081;28;20092;-79
2022/04/20 01:55:35;;;;;;;3.95;3.25;;;;;;;19.94;43.07;96690.13;10369861;28;20042;-79
2022/04/20 02:07:06;;;;;;;4.22;3.58;;;;;;;19.91;43.03;96673.75;10319348;28;20152;-80
2022/04/20 02:12:32;;;;;;;3.45;3.13;;;;;;;19.88;42.88;96675.22;10305927;28;20042;-80
2022/04/20 02:17:58;;;;;;;3.63;3.05;;;;;;;19.87;42.89;96662.81;10315285;28;20425;-79
2022/04/20 02:23:28;;;;;;;3.40;3.10;;;;;;;19.86;42.86;96663.94;10303270;28;20054;-79
2022/04/20 02:28:48;;;;;;;3.90;3.28;;;;;;;19.84;42.84;96666.19;10333630;28;20042;-80
2022/04/20 02:34:07;;;;;;;3.42;3.00;;;;;;;19.83;42.90;96667.28;10310173;28;20493;-79
2022/04/20 02:39:26;;;;;;;3.72;3.22;;;;;;;19.82;42.79;96671.13;10333396;28;20050;-80
2022/04/20 02:44:46;;;;;;;3.47;2.88;;;;;;;19.80;42.79;96672.56;10313570;28;20065;-80
2022/04/20 02:50:07;;;;;;;3.20;2.90;;;;;;;19.79;42.81;96673.69;10329533;28;20049;-79
2022/04/20 02:55:28;;;;;;;3.90;3.33;;;;;;;19.77;42.73;96667.81;10311831;28;20486;-79
2022/04/20 03:00:48;;;;;;;3.47;2.83;;;;;;;19.76;42.80;96667.03;10352051;28;20088;-80
2022/04/20 03:06:21;;;;;;;3.45;3.00;;;;;;;19.75;42.85;96676.25;10362234;28;20073;-80
2022/04/20 03:11:42;;;;;;;3.60;2.97;;;;;;;19.73;42.84;96681.19;10357760;28;20052;-80
2022/04/20 03:17:02;;;;;;;2.90;2.60;;;;;;;19.71;42.63;96681.50;10345762;28;20034;-80
2022/04/20 03:22:22;;;;;;;3.25;2.90;;;;;;;19.69;42.64;96689.13;10359710;28;20439;-80
2022/04/20 03:27:42;;;;;;;3.63;2.83;;;;;;;19.69;42.68;96693.75;10358486;28;20042;-80
2022/04/20 03:33:02;;;;;;;3.03;2.72;;;;;;;19.66;42.63;96700.59;10344432;28;20038;-80
2022/04/20 03:38:22;;;;;;;2.70;2.50;;;;;;;19.66;42.54;96700.59;10357273;28;20049;-80
2022/04/20 03:43:41;;;;;;;2.67;2.47;;;;;;;19.64;42.61;96696.63;10380371;28;20485;-79
2022/04/20 03:49:01;;;;;;;3.00;2.70;;;;;;;19.63;42.64;96705.88;10357757;28;20042;-79
2022/04/20 03:54:20;;;;;;;2.83;2.50;;;;;;;19.63;42.50;96703.16;10344416;28;20424;-79
2022/04/20 03:59:40;;;;;;;3.55;2.40;;;;;;;19.63;42.61;96705.88;10337549;28;20045;-79
2022/04/20 04:05:02;;;;;;;3.42;2.90;;;;;;;19.62;42.50;96704.28;10374147;28;20046;-79
2022/04/20 04:10:34;;;;;;;2.88;2.58;;;;;;;19.62;42.56;96707.78;10369039;28;20037;-79
2022/04/20 04:15:54;;;;;;;3.22;2.92;;;;;;;19.65;42.90;96719.84;10357983;28;20042;-80
2022/04/20 04:21:16;;;;;;;3.08;2.78;;;;;;;19.67;43.14;96723.00;10367565;28;20496;-79
2022/04/20 04:26:36;;;;;;;3.00;2.70;;;;;;;19.70;43.09;96720.47;10377213;28;20169;-79
2022/04/20 04:31:56;;;;;;;2.83;2.53;;;;;;;19.71;42.97;96732.88;10362024;28;20057;-79
2022/04/20 04:37:15;;;;;;;3.17;2.67;;;;;;;19.75;43.28;96735.72;10353557;28;20042;-79
2022/04/20 04:42:43;;;;;;;2.35;2.15;;;;;;;19.78;43.42;96745.06;10356792;28;20053;-79
2022/04/20 04:53:41;;;;;;;3.20;2.42;;;;;;;19.84;43.51;96732.97;10346626;28;20667;-81
2022/04/20 04:59:03;;;;;;;5.20;2.60;;;;;;;19.88;43.24;96740.09;10359036;28;20049;-80
2022/04/20 05:04:24;;;;;;;3.92;2.80;;;;;;;19.92;43.15;96738.31;10374597;28;20393;-80
2022/04/20 05:09:49;;;;;;;2.63;2.10;;;;;;;19.97;43.14;96731.13;10348741;28;20050;-80
2022/04/20 05:15:09;;;;;;;3.22;2.15;;;;;;;19.99;42.94;96726.19;10354366;28;20469;-80
2022/04/20 05:20:30;;;;;;;2.92;2.42;;;;;;;20.02;43.12;96723.63;10376408;28;20050;-80
2022/04/20 05:25:50;;;;;;;3.58;2.50;;;;;;;20.05;43.21;96724.88;10371195;28;20091;-80
2022/04/20 05:31:10;;;;;;;3.75;2.50;;;;;;;20.07;43.18;96728.84;10351821;28;20456;-81
2022/04/20 05:41:39;;;;;;;2.70;2.38;;;;;;;20.11;42.89;96727.06;10364282;28;20048;-81
2022/04/20 05:42:16;;;;;;;2.90;2.45;;;;;;;20.13;43.11;96724.00;10386034;28;20041;-82
2022/04/20 05:47:38;;;;;;;2.60;2.30;;;;;;;20.16;42.99;96728.78;10380395;28;20128;-82
2022/04/20 05:52:59;;;;;;;3.75;2.58;;;;;;;20.20;42.85;96735.09;10377409;28;20042;-82
2022/04/20 05:58:20;;;;;;;2.67;2.42;;;;;;;20.23;42.92;96741.75;10344901;28;20058;-82
2022/04/20 06:03:42;;;;;;;2.40;2.20;;;;;;;20.25;42.85;96736.84;10352559;28;20462;-82
2022/04/20 06:09:22;;;;;;;3.20;2.40;;;;;;;20.27;42.85;96737.31;10375840;28;20053;-82
2022/04/20 06:15:08;;;;;;;3.85;2.80;;;;;;;20.29;42.55;96732.34;10355352;28;20085;-82
2022/04/20 06:20:33;;;;;;;3.53;2.63;;;;;;;20.30;42.47;96723.88;10352717;28;20049;-81
2022/04/20 06:26:13;;;;;;;3.65;2.80;;;;;;;20.32;42.37;96718.16;10363325;28;20042;-81
2022/04/20 06:32:11;;;;;;;2.80;2.47;;;;;;;20.32;42.37;96721.63;10233954;29;20316;-81
2022/04/20 06:37:41;;;;;;;3.83;2.70;;;;;;;20.34;42.21;96705.84;10347916;28;20058;-82
2022/04/20 06:43:08;;;;;;;4.03;2.90;;;;;;;20.36;42.08;96700.13;10344680;28;20056;-81
2022/04/20 06:48:28;;;;;;;4.38;2.60;;;;;;;20.37;41.89;96706.34;10368171;28;20045;-81
2022/04/20 06:59:45;;;;;;;3.43;2.60;;;;;;;20.38;41.77;96705.22;10352164;28;20447;-81
2022/04/20 07:05:20;;;;;;;3.92;2.78;;;;;;;20.36;41.88;96692.00;10373186;28;20045;-81
2022/04/20 07:11:03;;;;;;;4.10;2.65;;;;;;;20.37;42.07;96690.13;10384590;28;20112;-81
2022/04/20 07:16:24;;;;;;;3.40;2.50;;;;;;;20.37;42.04;96682.78;10379695;28;20112;-81
2022/04/20 07:21:57;;;;;;;3.00;2.47;;;;;;;20.38;42.09;96681.66;10374830;28;20034;-82
2022/04/20 07:27:30;;;;;;;3.55;2.63;;;;;;;20.39;42.03;96688.66;10380160;28;20042;-81
2022/04/20 07:33:07;;;;;;;4.22;3.80;;;;;;;20.37;40.67;96685.50;10360797;28;20394;-81
2022/04/20 07:38:43;;;;;;;3.38;2.58;;;;;;;20.35;41.30;96680.41;10359278;28;20361;-81
2022/04/20 07:44:25;;;;;;;3.65;2.97;;;;;;;20.34;41.40;96675.31;10348875;28;20524;-81
2022/04/20 07:50:18;;;;;;;3.58;2.40;;;;;;;20.36;41.43;96683.88;10367299;28;20042;-81
2022/04/20 07:55:49;;;;;;;4.90;3.00;;;;;;;20.35;41.25;96691.22;10374065;28;20558;-81
2022/04/20 08:01:19;;;;;;;2.95;2.33;;;;;;;20.35;41.30;96691.22;10338447;28;20648;-81
2022/04/20 08:06:48;;;;;;;3.72;2.85;;;;;;;20.38;41.23;96691.69;10356093;28;20042;-81
2022/04/20 08:12:09;;;;;;;2.80;2.50;;;;;;;20.35;41.28;96685.81;10357411;28;20385;-81
2022/04/20 08:17:29;;;;;;;3.90;2.55;;;;;;;20.35;41.17;96687.75;10348835;28;20053;-81
2022/04/20 08:23:07;;;;;;;4.32;2.80;;;;;;;20.37;41.12;96695.53;10367035;28;20512;-81
2022/04/20 08:28:27;;;;;;;2.97;2.38;;;;;;;20.35;40.85;96693.16;10363068;28;20048;-81
2022/04/20 08:33:47;;;;;;;3.40;2.50;;;;;;;20.34;41.32;96696.97;10361558;28;20045;-82
2022/04/20 08:39:07;;;;;;;4.78;4.38;;;;;;;20.26;36.19;96695.91;10373687;28;20527;-81
2022/04/20 08:44:28;;;;;;;5.93;5.32;;;;;;;20.10;33.68;96687.59;10370793;28;20042;-82
2022/04/20 08:49:49;;;;;;;7.07;5.85;;;;;;;19.94;32.64;96689.31;10363319;28;20088;-82
2022/04/20 08:55:13;;;;;;;6.35;5.68;;;;;;;19.83;32.30;96691.63;10320434;28;20038;-82
2022/04/20 09:00:33;;;;;;;8.82;6.10;;;;;;;19.78;31.78;96689.13;10332011;28;20131;-82
2022/04/20 09:05:53;;;;;;;7.35;6.47;;;;;;;19.63;30.45;96686.94;10361546;28;20091;-82
2022/04/20 09:11:13;;;;;;;7.30;5.88;;;;;;;19.50;29.78;96686.88;10366295;28;20088;-81
2022/04/20 09:16:33;;;;;;;7.85;6.00;;;;;;;19.40;29.51;96692.63;10367489;28;20038;-82
2022/04/20 09:21:52;;;;;;;6.18;5.57;;;;;;;19.34;29.44;96689.31;10347789;28;20547;-82
2022/04/20 09:27:12;;;;;;;5.80;5.15;;;;;;;19.42;29.89;96676.09;10365898;28;20046;-81
2022/04/20 09:32:34;;;;;;;6.07;5.25;;;;;;;19.46;30.28;96667.00;10365662;28;20539;-82
2022/04/20 09:38:05;;;;;;;6.50;5.03;;;;;;;19.53;30.94;96670.00;10358392;28;20500;-82
2022/04/20 09:43:45;;;;;;;8.95;5.53;;;;;;;19.58;30.88;96665.50;10343282;28;20048;-82
2022/04/20 09:49:10;;;;;;;5.93;5.22;;;;;;;19.55;30.50;96661.56;10353748;28;20481;-81
2022/04/20 09:54:29;;;;;;;5.80;5.18;;;;;;;19.50;30.09;96657.16;10338164;28;20432;-82
2022/04/20 10:00:03;;;;;;;5.40;4.90;;;;;;;19.46;29.46;96658.91;10357773;28;20077;-83
2022/04/20 10:05:32;;;;;;;6.18;5.00;;;;;;;19.44;28.85;96652.25;10402281;28;20052;-82
2022/04/20 10:10:54;;;;;;;5.25;4.53;;;;;;;19.39;28.54;96647.06;10396626;28;20041;-81
2022/04/20 10:16:14;;;;;;;5.28;4.78;;;;;;;19.36;28.41;96649.25;10384406;28;20048;-82
2022/04/20 10:21:37;;;;;;;6.82;6.13;;;;;;;19.27;27.92;96639.66;10374555;28;20045;-81
2022/04/20 10:27:04;;;;;;;6.25;5.22;;;;;;;19.29;28.46;96640.09;10375004;28;20042;-81
2022/04/20 10:32:25;;;;;;;6.00;5.38;;;;;;;19.35;28.77;96634.19;10355965;28;20425;-81
2022/04/20 10:38:12;;;;;;;5.80;5.30;;;;;;;19.39;28.46;96623.53;10331725;28;20643;-81
2022/04/20 10:44:03;;;;;;;5.82;5.18;;;;;;;19.42;28.52;96625.56;10354086;28;20084;-81
2022/04/20 10:49:33;;;;;;;6.85;5.57;;;;;;;19.46;28.49;96615.66;10352281;28;20068;-81
2022/04/20 10:54:53;;;;;;;6.35;5.07;;;;;;;19.50;28.97;96621.22;10372938;28;20125;-81
2022/04/20 11:00:16;;;;;;;5.78;4.90;;;;;;;19.52;28.98;96614.38;10363594;28;20064;-81
2022/04/20 11:05:50;;;;;;;5.25;4.70;;;;;;;19.57;28.75;96610.69;10374346;28;20061;-81
2022/04/20 11:23:12;;;;;;;6.70;4.85;;;;;;;19.67;28.63;96594.06;10377875;28;20373;-81
2022/04/20 11:28:39;;;;;;;5.75;5.15;;;;;;;19.70;28.77;96598.06;10363531;28;20449;-82
2022/04/20 11:33:59;;;;;;;5.68;5.15;;;;;;;19.71;28.53;96592.31;10368203;28;20046;-81
2022/04/20 11:39:21;;;;;;;5.32;4.82;;;;;;;19.74;28.58;96582.78;10367734;28;20102;-81
2022/04/20 11:44:41;;;;;;;5.82;4.78;;;;;;;19.77;28.34;96573.22;10345924;28;20033;-81
2022/04/20 11:50:14;;;;;;;4.75;4.32;;;;;;;19.82;28.71;96567.63;10372669;28;20068;-81
2022/04/20 11:55:46;;;;;;;5.10;4.50;;;;;;;19.86;28.48;96557.72;10364324;28;20049;-81
2022/04/20 12:01:08;;;;;;;5.10;4.60;;;;;;;19.90;28.50;96559.41;10343408;28;20104;-81
2022/04/20 12:06:28;;;;;;;6.32;4.70;;;;;;;19.94;28.30;96560.34;10358381;28;20100;-81
2022/04/20 12:11:51;;;;;;;5.38;4.75;;;;;;;19.98;28.12;96549.66;10370042;28;20041;-81
2022/04/20 12:17:20;;;;;;;4.72;4.25;;;;;;;20.01;28.34;96542.78;10355145;28;20056;-81
2022/04/20 12:22:40;;;;;;;4.88;4.30;;;;;;;20.05;28.26;96541.00;10343075;28;20567;-81
2022/04/20 12:28:35;;;;;;;4.90;4.47;;;;;;;20.07;28.05;96517.91;10344118;28;20133;-81
2022/04/20 12:33:40;;;;;;;4.70;4.18;;;;;;;20.11;28.19;96524.25;10342097;28;20045;-81
2022/04/20 12:39:25;;;;;;;4.32;3.88;;;;;;;20.17;27.74;96518.59;10357890;28;20488;-81
2022/04/20 12:44:52;;;;;;;4.43;3.85;;;;;;;20.20;28.23;96518.72;10357332;28;20045;-82
2022/04/20 12:50:11;;;;;;;4.30;3.75;;;;;;;20.21;27.80;96514.91;10384357;28;20038;-82
2022/04/20 13:07:07;;;;;;;3.95;3.38;;;;;;;20.31;27.63;96502.88;10329368;28;20056;-81
2022/04/20 13:12:27;;;;;;;3.30;3.00;;;;;;;20.33;27.99;96495.19;10355654;28;20393;-82
2022/04/20 13:17:47;;;;;;;4.32;3.35;;;;;;;20.34;27.53;96492.13;10342399;28;20057;-82
2022/04/20 13:23:06;;;;;;;3.28;2.97;;;;;;;20.38;27.42;96481.44;10341387;28;20156;-81
2022/04/20 13:28:26;;;;;;;3.20;2.90;;;;;;;20.41;27.68;96474.59;10323756;28;20114;-82
2022/04/20 13:33:46;;;;;;;4.25;2.95;;;;;;;20.44;27.47;96474.66;10342989;28;20116;-82
2022/04/20 13:39:06;;;;;;;2.90;2.70;;;;;;;20.47;27.70;96473.22;10341757;28;20050;-82
2022/04/20 13:44:25;;;;;;;3.15;2.85;;;;;;;20.49;27.55;96471.75;10344481;28;20045;-82
2022/04/20 13:49:45;;;;;;;3.60;3.00;;;;;;;20.51;27.04;96482.25;10359261;28;20048;-82
2022/04/20 13:55:06;;;;;;;3.20;2.80;;;;;;;20.54;27.01;96486.97;10367611;28;20443;-81
2022/04/20 14:00:28;;;;;;;3.28;2.80;;;;;;;20.55;27.30;96475.81;10367717;28;20531;-81
2022/04/20 14:05:48;;;;;;;2.55;2.35;;;;;;;20.57;27.29;96478.19;10377895;28;20065;-81
2022/04/20 14:11:07;;;;;;;3.50;2.40;;;;;;;20.60;27.21;96482.97;10355732;28;20051;-82
2022/04/20 14:16:27;;;;;;;2.65;2.45;;;;;;;20.63;27.29;96470.66;10358080;28;20429;-82
2022/04/20 14:21:47;;;;;;;2.67;2.47;;;;;;;20.65;27.24;96479.22;10373342;28;20045;-82
2022/04/20 14:32:48;;;;;;;2.60;2.40;;;;;;;20.61;26.50;96497.28;10357061;28;20054;-80
2022/04/20 14:38:07;;;;;;;3.08;2.45;;;;;;;20.61;26.62;96500.75;10356776;28;20053;-82
2022/04/20 14:43:27;;;;;;;6.07;2.33;;;;;;;20.64;27.29;96510.94;10351702;28;20065;-81
2022/04/20 14:48:47;;;;;;;3.25;2.17;;;;;;;20.66;28.35;96518.69;10382311;28;20452;-81
2022/04/20 14:54:07;;;;;;;4.13;2.15;;;;;;;20.69;29.22;96516.09;10387661;28;20046;-81
2022/04/20 14:59:27;;;;;;;4.18;1.95;;;;;;;20.74;29.71;96524.00;10364970;28;20066;-80
2022/04/20 15:04:47;;;;;;;3.47;1.90;;;;;;;20.76;30.46;96517.44;10371702;28;20165;-81
2022/04/20 15:10:07;;;;;;;6.63;1.80;;;;;;;20.81;30.97;96522.66;10377042;28;20049;-81
2022/04/20 15:15:27;;;;;;;8.13;2.20;;;;;;;20.84;31.23;96508.44;10360580;28;20042;-82
2022/04/20 15:20:46;;;;;;;5.97;2.20;;;;;;;20.86;31.64;96512.38;10360318;28;20412;-83
2022/04/20 15:26:07;;;;;;;5.10;1.80;;;;;;;20.87;31.65;96513.16;10361366;28;20049;-80
2022/04/20 15:31:27;;;;;;;5.75;1.90;;;;;;;20.90;31.85;96513.28;10381957;28;20046;-80
2022/04/20 15:36:46;;;;;;;3.58;1.85;;;;;;;20.94;31.91;96510.69;10361333;28;20056;-80
2022/04/20 15:42:07;;;;;;;3.20;1.80;;;;;;;20.97;32.04;96518.13;10368822;28;20069;-80
2022/04/20 15:47:26;;;;;;;6.03;1.70;;;;;;;21.00;32.24;96508.53;10361686;28;20485;-80
2022/04/20 15:52:46;;;;;;;2.80;1.85;;;;;;;21.00;32.42;96512.03;10349164;28;20511;-80
2022/04/20 16:03:45;;;;;;;4.13;1.70;;;;;;;21.03;32.67;96510.56;10393123;28;20044;-81
2022/04/20 16:09:04;;;;;;;3.78;1.98;;;;;;;21.05;32.72;96511.81;10364922;28;20072;-80
2022/04/20 16:14:25;;;;;;;3.05;1.60;;;;;;;21.05;32.96;96506.41;10358589;28;20732;-82
2022/04/20 16:19:45;;;;;;;5.72;1.70;;;;;;;21.06;33.17;96505.25;10365308;28;20051;-81
2022/04/20 16:25:06;;;;;;;3.70;1.40;;;;;;;21.07;33.23;96501.44;10359723;28;20091;-82
2022/04/20 16:30:25;;;;;;;3.78;1.95;;;;;;;21.09;33.44;96501.88;10386671;28;20037;-81
2022/04/20 16:35:46;;;;;;;7.13;1.88;;;;;;;21.09;33.75;96509.19;10350735;28;20087;-81
2022/04/20 16:41:06;;;;;;;6.95;1.90;;;;;;;21.09;34.20;96507.28;10366169;28;20480;-81
2022/04/20 16:46:26;;;;;;;3.47;1.73;;;;;;;21.09;34.38;96504.59;10384279;28;20128;-81
2022/04/20 16:51:45;;;;;;;3.55;1.70;;;;;;;21.10;34.74;96502.66;10402057;28;20045;-82
2022/04/20 16:57:05;;;;;;;2.33;1.77;;;;;;;21.10;35.00;96500.72;10333686;28;20490;-81
2022/04/20 17:02:26;;;;;;;4.80;1.88;;;;;;;21.06;35.35;96505.25;10315448;28;20046;-81
2022/04/20 17:07:45;;;;;;;2.38;1.83;;;;;;;21.06;35.49;96504.47;10342053;28;20041;-81
2022/04/20 17:13:06;;;;;;;2.85;1.80;;;;;;;21.06;35.88;96512.59;10367179;28;20049;-82
2022/04/20 17:18:25;;;;;;;3.90;1.50;;;;;;;21.08;36.12;96507.63;10344318;28;20597;-82
2022/04/20 17:29:24;;;;;;;7.93;7.13;;;;;;;20.92;33.12;96515.66;10346399;28;20100;-82
2022/04/20 17:34:43;;;;;;;11.05;8.27;;;;;;;20.43;31.84;96513.69;10367635;28;20101;-81
2022/04/20 17:40:03;;;;;;;8.43;7.53;;;;;;;20.10;32.42;96502.94;10337240;28;20488;-81
2022/04/20 17:45:23;;;;;;;7.68;4.35;;;;;;;20.31;33.62;96506.34;10367032;28;20038;-81
2022/04/20 17:50:43;;;;;;;7.60;4.40;;;;;;;20.52;34.19;96508.97;10329055;28;20489;-81
2022/04/20 17:56:04;;;;;;;5.30;3.97;;;;;;;20.62;34.58;96505.06;10349906;28;20045;-82
2022/04/20 18:01:26;;;;;;;7.10;3.50;;;;;;;20.69;34.78;96505.28;10370184;28;20057;-81
2022/04/20 18:06:46;;;;;;;7.03;3.60;;;;;;;20.76;35.30;96503.91;10343632;28;20040;-81
2022/04/20 18:12:07;;;;;;;6.38;3.42;;;;;;;20.79;35.77;96497.84;10336063;28;20507;-82
2022/04/20 18:17:27;;;;;;;5.25;3.22;;;;;;;20.82;35.92;96499.88;10327375;28;20048;-82
2022/04/20 18:22:47;;;;;;;3.85;3.05;;;;;;;20.82;36.18;96500.66;10326652;28;20049;-82
2022/04/20 18:28:08;;;;;;;5.90;3.22;;;;;;;20.86;36.36;96506.19;10328592;28;20401;-81
2022/04/20 18:33:28;;;;;;;5.45;2.83;;;;;;;20.88;36.83;96503.94;10334960;28;20481;-81
2022/04/20 18:38:48;;;;;;;5.53;3.22;;;;;;;20.89;37.48;96502.78;10351732;28;20049;-80
2022/04/20 18:44:08;;;;;;;8.40;2.88;;;;;;;20.91;37.74;96503.22;10353513;28;20042;-81
2022/04/20 18:49:28;;;;;;;4.03;3.13;;;;;;;20.92;38.09;96499.41;10352974;28;20529;-80
2022/04/20 19:00:26;;;;;;;5.55;2.88;;;;;;;20.95;38.67;96504.13;10373959;28;20057;-81
2022/04/20 19:05:46;;;;;;;7.70;3.17;;;;;;;20.94;39.01;96503.34;10351399;28;20052;-80
2022/04/20 19:11:07;;;;;;;6.40;3.13;;;;;;;20.97;39.07;96504.56;10364802;28;20109;-81
2022/04/20 19:16:30;;;;;;;4.82;2.95;;;;;;;20.96;38.97;96494.88;10369150;28;20047;-80
2022/04/20 19:21:50;;;;;;;4.07;2.70;;;;;;;20.94;39.14;96491.72;10358545;28;20101;-81
2022/04/20 19:27:10;;;;;;;5.32;2.80;;;;;;;20.94;39.21;96489.81;10329317;28;20069;-81
2022/04/20 19:32:30;;;;;;;6.00;2.78;;;;;;;20.93;39.22;96487.44;10363719;28;20038;-81
2022/04/20 19:37:50;;;;;;;4.25;2.83;;;;;;;20.93;39.54;96485.53;10371250;28;20095;-81
2022/04/20 19:43:10;;;;;;;4.70;2.60;;;;;;;20.94;39.60;96478.19;10337537;28;20102;-80
2022/04/20 19:48:30;;;;;;;4.40;2.70;;;;;;;20.93;39.66;96485.53;10348850;28;20053;-80
2022/04/20 19:53:51;;;;;;;4.63;2.42;;;;;;;20.93;39.68;96485.53;10316753;28;20038;-81
2022/04/20 19:59:12;;;;;;;3.35;2.40;;;;;;;20.93;39.83;96485.53;10328169;28;20113;-81
2022/04/20 20:04:32;;;;;;;4.13;2.90;;;;;;;20.93;39.84;96476.59;10341253;28;21382;-81
2022/04/20 20:09:51;;;;;;;4.70;2.70;;;;;;;20.92;39.88;96477.75;10367024;28;20117;-80
2022/04/20 20:15:12;;;;;;;3.75;2.50;;;;;;;20.92;39.73;96472.34;10367863;28;20046;-81
2022/04/20 20:20:31;;;;;;;5.28;2.75;;;;;;;20.91;40.04;96473.44;10315604;28;20129;-81
2022/04/20 20:31:30;;;;;;;2.63;2.28;;;;;;;20.90;40.05;96469.19;10344773;28;20038;-82
2022/04/20 20:36:51;;;;;;;4.70;2.40;;;;;;;20.88;39.90;96464.09;10351597;28;20048;-81
2022/04/20 20:42:11;;;;;;;2.83;2.38;;;;;;;20.88;39.83;96466.03;10344133;28;20046;-81
2022/04/20 20:47:31;;;;;;;2.80;2.30;;;;;;;20.88;40.01;96466.81;10372363;28;20676;-81
2022/04/20 20:52:52;;;;;;;3.30;2.30;;;;;;;20.88;40.19;96452.47;10365907;28;20091;-81
2022/04/20 20:58:13;;;;;;;4.55;2.53;;;;;;;20.90;40.36;96444.81;10351107;28;20136;-81
2022/04/20 21:03:33;;;;;;;3.92;2.42;;;;;;;20.89;40.54;96443.22;10346607;28;20082;-81
2022/04/20 21:08:53;;;;;;;3.40;2.33;;;;;;;20.88;40.53;96447.06;10367640;28;20046;-81
2022/04/20 21:14:12;;;;;;;2.88;2.25;;;;;;;20.86;40.62;96443.91;10358073;28;20059;-82
2022/04/20 21:19:33;;;;;;;3.75;2.75;;;;;;;20.84;40.46;96432.63;10382442;28;20050;-81
2022/04/20 21:24:54;;;;;;;3.45;2.40;;;;;;;20.83;40.61;96434.53;10343410;28;20042;-81
2022/04/20 21:30:14;;;;;;;3.33;2.33;;;;;;;20.83;40.43;96433.75;10351172;28;20037;-81
2022/04/20 21:35:34;;;;;;;3.30;2.20;;;;;;;20.82;40.45;96440.31;10346049;28;20050;-80
2022/04/20 21:40:57;;;;;;;3.67;2.60;;;;;;;20.80;40.49;96427.13;10359489;28;20573;-81
2022/04/20 21:46:17;;;;;;;3.17;2.17;;;;;;;20.80;40.45;96432.53;10347242;28;20046;-79
2022/04/20 21:51:36;;;;;;;3.65;2.20;;;;;;;20.79;40.53;96430.16;10357289;28;20069;-79
2022/04/20 21:56:57;;;;;;;2.55;2.33;;;;;;;20.77;40.46;96425.06;10358183;28;20050;-79
2022/04/20 22:08:24;;;;;;;3.72;2.20;;;;;;;20.74;40.47;96428.47;10289045;28;20061;-79
2022/04/20 22:13:44;;;;;;;2.17;1.88;;;;;;;20.73;40.38;96422.25;10364221;28;20052;-79
2022/04/20 22:19:04;;;;;;;3.50;2.15;;;;;;;20.72;40.36;96415.28;10358512;28;20046;-79
2022/04/20 22:24:23;;;;;;;2.95;2.03;;;;;;;20.70;40.44;96414.06;10362036;28;20045;-79
2022/04/20 22:29:45;;;;;;;2.38;1.80;;;;;;;20.69;40.44;96407.81;10363421;28;20049;-79
2022/04/20 22:35:05;;;;;;;3.00;2.00;;;;;;;20.69;40.63;96404.34;10372018;28;20410;-79
2022/04/20 22:40:25;;;;;;;2.72;2.13;;;;;;;20.67;40.39;96401.97;10370338;28;20100;-79
2022/04/20 22:45:46;;;;;;;3.13;2.20;;;;;;;20.66;40.40;96399.59;10373414;28;20049;-79
2022/04/20 22:51:06;;;;;;;2.30;2.10;;;;;;;20.64;40.50;96399.97;10379917;28;20105;-79
2022/04/20 22:56:25;;;;;;;2.10;1.90;;;;;;;20.62;40.57;96394.09;10371682;28;20042;-79
2022/04/20 23:01:45;;;;;;;2.13;1.88;;;;;;;20.63;40.43;96405.72;10361106;28;20546;-79
2022/04/20 23:07:04;;;;;;;2.05;1.85;;;;;;;20.62;40.46;96409.53;10359010;28;20038;-79
2022/04/20 23:12:24;;;;;;;2.95;1.80;;;;;;;20.60;40.47;96406.38;10389980;28;20046;-79
2022/04/20 23:17:43;;;;;;;2.47;1.77;;;;;;;20.59;40.38;96405.59;10374040;28;20485;-79
2022/04/20 23:23:02;;;;;;;2.22;1.73;;;;;;;20.57;40.42;96410.53;10369407;28;20038;-79
2022/04/20 23:28:31;;;;;;;3.28;1.80;;;;;;;20.55;40.47;96402.75;10360533;28;20044;-80
2022/04/20 23:33:50;;;;;;;;;;;;;;;20.53;40.58;96402.28;10363485;28;20100;-80
2022/04/20 23:39:10;;;;;;;2.92;1.70;;;;;;;20.53;40.38;96404.22;10358122;28;19921;-79
2022/04/20 23:44:29;;;;;;;3.50;1.88;;;;;;;20.53;40.39;96404.22;10371092;28;20072;-79
2022/04/20 23:55:28;;;;;;;2.33;1.65;;;;;;;20.49;40.42;96395.22;10387770;28;20046;-79
